sensor_id;sensor_type;location;lat;lon;timestamp;P1;durP1;ratioP1;P2;durP2;ratioP2
21030;SDS011;61072;47.808;7.636;2022-10-22T03:41:00;27.65;;;13.30;;
21030;SDS011;61072;47.808;7.636;2022-10-22T03:43:26;29.08;;;14.82;;
21030;SDS011;61072;47.808;7.636;2022-10-22T03:45:53;25.65;;;14.00;;
21030;SDS011;61072;47.808;7.636;2022-10-22T03:48:20;23.55;;;14.30;;
21030;SDS011;61072;47.808;7.636;2022-10-22T03:50:46;30.48;;;15.68;;
21030;SDS011;61072;47.808;7.636;2022-10-22T03:53:13;28.55;;;14.60;;
21030;SDS011;61072;47.808;7.636;2022-10-22T03:55:40;28.30;;;15.98;;
21030;SDS011;61072;47.808;7.636;2022-10-22T03:58:07;24.85;;;14.93;;
21030;SDS011;61072;47.808;7.636;2022-10-22T04:00:33;29.38;;;15.32;;
21030;SDS011;61072;47.808;7.636;2022-10-22T04:03:00;27.00;;;14.43;;
21030;SDS011;61072;47.808;7.636;2022-10-22T04:05:27;27.90;;;15.10;;
21030;SDS011;61072;47.808;7.636;2022-10-22T04:07:54;28.00;;;14.88;;
21030;SDS011;61072;47.808;7.636;2022-10-22T04:10:20;32.58;;;15.80;;
21030;SDS011;61072;47.808;7.636;2022-10-22T04:12:47;29.48;;;15.70;;
21030;SDS011;61072;47.808;7.636;2022-10-22T04:15:14;34.17;;;16.33;;
21030;SDS011;61072;47.808;7.636;2022-10-22T04:17:41;24.40;;;13.63;;
21030;SDS011;61072;47.808;7.636;2022-10-22T04:20:09;24.63;;;13.40;;
21030;SDS011;61072;47.808;7.636;2022-10-22T04:22:36;26.80;;;14.43;;
21030;SDS011;61072;47.808;7.636;2022-10-22T04:25:03;21.77;;;12.80;;
21030;SDS011;61072;47.808;7.636;2022-10-22T04:27:31;27.98;;;14.13;;
21030;SDS011;61072;47.808;7.636;2022-10-22T04:29:59;23.90;;;13.00;;
21030;SDS011;61072;47.808;7.636;2022-10-22T04:32:26;21.77;;;13.40;;
21030;SDS011;61072;47.808;7.636;2022-10-22T04:34:53;24.92;;;13.75;;
21030;SDS011;61072;47.808;7.636;2022-10-22T04:37:19;24.40;;;12.90;;
21030;SDS011;61072;47.808;7.636;2022-10-22T04:39:46;22.95;;;12.50;;
21030;SDS011;61072;47.808;7.636;2022-10-22T04:42:13;22.52;;;12.60;;
21030;SDS011;61072;47.808;7.636;2022-10-22T04:44:40;22.95;;;13.15;;
21030;SDS011;61072;47.808;7.636;2022-10-22T04:47:06;28.40;;;13.20;;
21030;SDS011;61072;47.808;7.636;2022-10-22T04:49:33;30.65;;;15.25;;
21030;SDS011;61072;47.808;7.636;2022-10-22T04:52:00;28.70;;;14.38;;
21030;SDS011;61072;47.808;7.636;2022-10-22T04:54:26;25.63;;;13.30;;
21030;SDS011;61072;47.808;7.636;2022-10-22T04:56:58;23.45;;;12.18;;
21030;SDS011;61072;47.808;7.636;2022-10-22T04:59:24;25.20;;;13.23;;
21030;SDS011;61072;47.808;7.636;2022-10-22T05:01:51;21.08;;;12.60;;
21030;SDS011;61072;47.808;7.636;2022-10-22T05:04:18;23.15;;;13.27;;
21030;SDS011;61072;47.808;7.636;2022-10-22T05:06:45;21.35;;;13.43;;
21030;SDS011;61072;47.808;7.636;2022-10-22T05:09:13;23.58;;;13.80;;
21030;SDS011;61072;47.808;7.636;2022-10-22T05:11:42;29.10;;;13.60;;
21030;SDS011;61072;47.808;7.636;2022-10-22T05:14:11;25.65;;;13.75;;
21030;SDS011;61072;47.808;7.636;2022-10-22T05:16:38;21.63;;;11.85;;
21030;SDS011;61072;47.808;7.636;2022-10-22T05:19:05;19.42;;;11.88;;
21030;SDS011;61072;47.808;7.636;2022-10-22T05:21:33;28.63;;;12.88;;
21030;SDS011;61072;47.808;7.636;2022-10-22T05:24:00;20.63;;;11.48;;
21030;SDS011;61072;47.808;7.636;2022-10-22T05:26:27;19.70;;;11.68;;
21030;SDS011;61072;47.808;7.636;2022-10-22T05:28:54;21.98;;;11.52;;
21030;SDS011;61072;47.808;7.636;2022-10-22T05:31:21;22.70;;;11.98;;
21030;SDS011;61072;47.808;7.636;2022-10-22T05:33:47;22.15;;;12.52;;
21030;SDS011;61072;47.808;7.636;2022-10-22T05:36:16;25.63;;;14.60;;
21030;SDS011;61072;47.808;7.636;2022-10-22T05:38:44;22.65;;;13.10;;
21030;SDS011;61072;47.808;7.636;2022-10-22T05:41:12;26.60;;;14.18;;
21030;SDS011;61072;47.808;7.636;2022-10-22T05:43:47;24.42;;;14.02;;
21030;SDS011;61072;47.808;7.636;2022-10-22T05:46:16;21.27;;;11.25;;
21030;SDS011;61072;47.808;7.636;2022-10-22T05:48:51;22.48;;;11.45;;
21030;SDS011;61072;47.808;7.636;2022-10-22T05:51:25;21.92;;;11.73;;
21030;SDS011;61072;47.808;7.636;2022-10-22T05:53:54;22.98;;;11.38;;
21030;SDS011;61072;47.808;7.636;2022-10-22T05:56:22;25.33;;;11.38;;
21030;SDS011;61072;47.808;7.636;2022-10-22T05:58:50;26.90;;;11.93;;
21030;SDS011;61072;47.808;7.636;2022-10-22T06:01:18;21.60;;;10.02;;
21030;SDS011;61072;47.808;7.636;2022-10-22T06:03:46;21.85;;;10.68;;
21030;SDS011;61072;47.808;7.636;2022-10-22T06:06:16;25.30;;;11.38;;
21030;SDS011;61072;47.808;7.636;2022-10-22T06:08:47;20.23;;;10.15;;
21030;SDS011;61072;47.808;7.636;2022-10-22T06:11:15;19.52;;;10.00;;
21030;SDS011;61072;47.808;7.636;2022-10-22T06:13:44;17.15;;;8.75;;
21030;SDS011;61072;47.808;7.636;2022-10-22T06:16:11;18.60;;;10.00;;
21030;SDS011;61072;47.808;7.636;2022-10-22T06:18:39;14.90;;;8.98;;
21030;SDS011;61072;47.808;7.636;2022-10-22T06:21:06;18.35;;;10.18;;
21030;SDS011;61072;47.808;7.636;2022-10-22T06:23:35;19.67;;;8.55;;
21030;SDS011;61072;47.808;7.636;2022-10-22T06:26:03;18.23;;;9.07;;
21030;SDS011;61072;47.808;7.636;2022-10-22T06:28:30;21.00;;;9.32;;
21030;SDS011;61072;47.808;7.636;2022-10-22T06:30:58;17.08;;;8.68;;
21030;SDS011;61072;47.808;7.636;2022-10-22T06:33:26;12.73;;;7.40;;
21030;SDS011;61072;47.808;7.636;2022-10-22T06:35:53;13.35;;;7.15;;
21030;SDS011;61072;47.808;7.636;2022-10-22T06:38:20;18.60;;;8.65;;
21030;SDS011;61072;47.808;7.636;2022-10-22T06:40:47;14.10;;;6.90;;
21030;SDS011;61072;47.808;7.636;2022-10-22T06:43:13;16.73;;;8.13;;
21030;SDS011;61072;47.808;7.636;2022-10-22T06:45:41;17.30;;;6.75;;
21030;SDS011;61072;47.808;7.636;2022-10-22T06:48:08;18.63;;;7.43;;
21030;SDS011;61072;47.808;7.636;2022-10-22T06:50:35;16.58;;;7.80;;
21030;SDS011;61072;47.808;7.636;2022-10-22T06:53:01;15.80;;;7.35;;
21030;SDS011;61072;47.808;7.636;2022-10-22T06:55:28;10.38;;;6.00;;
21030;SDS011;61072;47.808;7.636;2022-10-22T06:57:55;12.07;;;6.15;;
21030;SDS011;61072;47.808;7.636;2022-10-22T07:00:21;12.95;;;5.20;;
21030;SDS011;61072;47.808;7.636;2022-10-22T07:02:49;8.20;;;4.75;;
21030;SDS011;61072;47.808;7.636;2022-10-22T07:05:24;14.95;;;5.22;;
21030;SDS011;61072;47.808;7.636;2022-10-22T07:07:50;12.75;;;5.07;;
21030;SDS011;61072;47.808;7.636;2022-10-22T07:10:17;11.25;;;4.68;;
21030;SDS011;61072;47.808;7.636;2022-10-22T07:12:44;10.00;;;4.60;;
21030;SDS011;61072;47.808;7.636;2022-10-22T07:15:10;6.57;;;5.05;;
21030;SDS011;61072;47.808;7.636;2022-10-22T07:17:37;14.80;;;6.55;;
21030;SDS011;61072;47.808;7.636;2022-10-22T07:20:05;8.13;;;5.53;;
21030;SDS011;61072;47.808;7.636;2022-10-22T07:22:32;8.15;;;5.07;;
21030;SDS011;61072;47.808;7.636;2022-10-22T07:24:59;7.60;;;5.63;;
21030;SDS011;61072;47.808;7.636;2022-10-22T07:27:32;9.60;;;4.97;;
21030;SDS011;61072;47.808;7.636;2022-10-22T07:29:59;10.60;;;5.03;;
21030;SDS011;61072;47.808;7.636;2022-10-22T07:32:26;11.88;;;6.93;;
21030;SDS011;61072;47.808;7.636;2022-10-22T07:34:53;9.32;;;5.03;;
21030;SDS011;61072;47.808;7.636;2022-10-22T07:37:20;15.23;;;9.90;;
21030;SDS011;61072;47.808;7.636;2022-10-22T07:39:47;12.43;;;7.32;;
21030;SDS011;61072;47.808;7.636;2022-10-22T07:42:14;10.98;;;6.80;;
21030;SDS011;61072;47.808;7.636;2022-10-22T07:44:41;11.02;;;5.70;;
21030;SDS011;61072;47.808;7.636;2022-10-22T07:47:08;13.15;;;6.45;;
21030;SDS011;61072;47.808;7.636;2022-10-22T07:49:35;9.32;;;6.85;;
21030;SDS011;61072;47.808;7.636;2022-10-22T07:52:01;15.35;;;8.40;;
21030;SDS011;61072;47.808;7.636;2022-10-22T07:54:28;14.38;;;6.45;;
21030;SDS011;61072;47.808;7.636;2022-10-22T07:56:55;11.63;;;8.30;;
21030;SDS011;61072;47.808;7.636;2022-10-22T07:59:21;11.15;;;6.80;;
21030;SDS011;61072;47.808;7.636;2022-10-22T08:01:48;12.82;;;7.90;;
21030;SDS011;61072;47.808;7.636;2022-10-22T08:04:15;12.98;;;6.47;;
21030;SDS011;61072;47.808;7.636;2022-10-22T08:06:41;11.55;;;5.80;;
21030;SDS011;61072;47.808;7.636;2022-10-22T08:09:12;13.57;;;5.50;;
21030;SDS011;61072;47.808;7.636;2022-10-22T08:11:39;9.63;;;5.38;;
21030;SDS011;61072;47.808;7.636;2022-10-22T08:14:05;8.10;;;4.40;;
21030;SDS011;61072;47.808;7.636;2022-10-22T08:16:32;12.70;;;6.18;;
21030;SDS011;61072;47.808;7.636;2022-10-22T08:18:59;8.38;;;6.40;;
21030;SDS011;61072;47.808;7.636;2022-10-22T08:21:26;8.85;;;6.10;;
21030;SDS011;61072;47.808;7.636;2022-10-22T08:23:52;12.52;;;7.85;;
21030;SDS011;61072;47.808;7.636;2022-10-22T08:26:19;7.65;;;4.72;;
21030;SDS011;61072;47.808;7.636;2022-10-22T08:28:46;4.72;;;2.50;;
21030;SDS011;61072;47.808;7.636;2022-10-22T08:31:13;6.10;;;2.20;;
21030;SDS011;61072;47.808;7.636;2022-10-22T08:33:39;5.10;;;1.88;;
21030;SDS011;61072;47.808;7.636;2022-10-22T08:36:07;3.78;;;2.13;;
21030;SDS011;61072;47.808;7.636;2022-10-22T08:38:34;4.53;;;3.45;;
21030;SDS011;61072;47.808;7.636;2022-10-22T08:46:31;5.63;;;2.17;;
21030;SDS011;61072;47.808;7.636;2022-10-22T08:49:20;7.97;;;1.85;;
21030;SDS011;61072;47.808;7.636;2022-10-22T08:51:55;9.82;;;2.00;;
21030;SDS011;61072;47.808;7.636;2022-10-22T08:57:05;3.38;;;1.55;;
21030;SDS011;61072;47.808;7.636;2022-10-22T08:59:46;5.43;;;1.42;;
21030;SDS011;61072;47.808;7.636;2022-10-22T09:02:36;2.58;;;1.00;;
21030;SDS011;61072;47.808;7.636;2022-10-22T09:05:47;4.22;;;1.20;;
21030;SDS011;61072;47.808;7.636;2022-10-22T09:08:33;9.90;;;1.50;;
21030;SDS011;61072;47.808;7.636;2022-10-22T09:11:02;7.05;;;1.38;;
21030;SDS011;61072;47.808;7.636;2022-10-22T09:13:39;6.45;;;1.17;;
21030;SDS011;61072;47.808;7.636;2022-10-22T09:18:54;3.05;;;1.13;;
21030;SDS011;61072;47.808;7.636;2022-10-22T09:23:58;5.03;;;1.67;;
21030;SDS011;61072;47.808;7.636;2022-10-22T09:26:31;1.58;;;0.93;;
21030;SDS011;61072;47.808;7.636;2022-10-22T09:29:01;3.03;;;1.20;;
21030;SDS011;61072;47.808;7.636;2022-10-22T09:31:29;5.43;;;1.48;;
21030;SDS011;61072;47.808;7.636;2022-10-22T09:33:57;3.72;;;1.40;;
21030;SDS011;61072;47.808;7.636;2022-10-22T09:36:27;3.30;;;1.80;;
21030;SDS011;61072;47.808;7.636;2022-10-22T09:38:54;1.98;;;1.20;;
21030;SDS011;61072;47.808;7.636;2022-10-22T09:41:23;1.65;;;0.82;;
21030;SDS011;61072;47.808;7.636;2022-10-22T09:43:54;2.67;;;1.13;;
21030;SDS011;61072;47.808;7.636;2022-10-22T09:46:22;2.38;;;1.13;;
21030;SDS011;61072;47.808;7.636;2022-10-22T09:54:02;5.38;;;1.65;;
21030;SDS011;61072;47.808;7.636;2022-10-22T09:56:39;5.07;;;1.52;;
21030;SDS011;61072;47.808;7.636;2022-10-22T09:59:14;4.07;;;1.30;;
21030;SDS011;61072;47.808;7.636;2022-10-22T10:01:41;3.42;;;1.20;;
21030;SDS011;61072;47.808;7.636;2022-10-22T10:04:10;2.15;;;1.10;;
21030;SDS011;61072;47.808;7.636;2022-10-22T10:06:40;4.75;;;0.98;;
21030;SDS011;61072;47.808;7.636;2022-10-22T10:09:12;2.42;;;1.17;;
21030;SDS011;61072;47.808;7.636;2022-10-22T10:11:44;7.75;;;2.03;;
21030;SDS011;61072;47.808;7.636;2022-10-22T10:17:09;3.15;;;1.20;;
21030;SDS011;61072;47.808;7.636;2022-10-22T10:19:53;4.90;;;1.20;;
21030;SDS011;61072;47.808;7.636;2022-10-22T10:28:18;2.97;;;1.33;;
21030;SDS011;61072;47.808;7.636;2022-10-22T10:36:26;4.35;;;0.90;;
21030;SDS011;61072;47.808;7.636;2022-10-22T10:39:10;3.75;;;1.10;;
21030;SDS011;61072;47.808;7.636;2022-10-22T10:41:55;6.55;;;1.80;;
21030;SDS011;61072;47.808;7.636;2022-10-22T10:49:30;4.00;;;1.42;;
21030;SDS011;61072;47.808;7.636;2022-10-22T11:00:20;3.45;;;1.40;;
21030;SDS011;61072;47.808;7.636;2022-10-22T11:05:36;6.22;;;1.52;;
21030;SDS011;61072;47.808;7.636;2022-10-22T11:13:13;3.55;;;1.30;;
21030;SDS011;61072;47.808;7.636;2022-10-22T11:15:49;5.65;;;1.50;;
21030;SDS011;61072;47.808;7.636;2022-10-22T11:18:34;3.65;;;1.45;;
21030;SDS011;61072;47.808;7.636;2022-10-22T11:21:20;3.05;;;1.33;;
21030;SDS011;61072;47.808;7.636;2022-10-22T11:24:01;5.03;;;1.23;;
21030;SDS011;61072;47.808;7.636;2022-10-22T11:29:26;6.10;;;1.35;;
21030;SDS011;61072;47.808;7.636;2022-10-22T11:31:58;5.25;;;1.42;;
21030;SDS011;61072;47.808;7.636;2022-10-22T11:34:32;4.65;;;1.45;;
21030;SDS011;61072;47.808;7.636;2022-10-22T11:37:03;3.00;;;1.30;;
21030;SDS011;61072;47.808;7.636;2022-10-22T11:39:33;3.50;;;1.27;;
21030;SDS011;61072;47.808;7.636;2022-10-22T11:42:08;5.40;;;1.20;;
21030;SDS011;61072;47.808;7.636;2022-10-22T11:44:47;3.08;;;1.08;;
21030;SDS011;61072;47.808;7.636;2022-10-22T11:47:23;2.05;;;1.10;;
21030;SDS011;61072;47.808;7.636;2022-10-22T11:49:55;2.35;;;1.00;;
21030;SDS011;61072;47.808;7.636;2022-10-22T11:54:57;5.60;;;1.67;;
21030;SDS011;61072;47.808;7.636;2022-10-22T11:57:35;4.68;;;1.30;;
21030;SDS011;61072;47.808;7.636;2022-10-22T12:03:01;5.80;;;1.33;;
21030;SDS011;61072;47.808;7.636;2022-10-22T12:05:40;3.83;;;1.33;;
21030;SDS011;61072;47.808;7.636;2022-10-22T12:14:13;3.50;;;1.50;;
21030;SDS011;61072;47.808;7.636;2022-10-22T12:19:35;4.00;;;1.70;;
21030;SDS011;61072;47.808;7.636;2022-10-22T12:24:45;4.57;;;1.95;;
21030;SDS011;61072;47.808;7.636;2022-10-22T12:27:15;4.85;;;1.90;;
21030;SDS011;61072;47.808;7.636;2022-10-22T12:29:57;1.98;;;1.10;;
21030;SDS011;61072;47.808;7.636;2022-10-22T12:32:36;5.80;;;1.40;;
21030;SDS011;61072;47.808;7.636;2022-10-22T12:35:10;4.40;;;1.10;;
21030;SDS011;61072;47.808;7.636;2022-10-22T12:37:42;4.97;;;1.10;;
21030;SDS011;61072;47.808;7.636;2022-10-22T12:40:32;3.53;;;1.23;;
21030;SDS011;61072;47.808;7.636;2022-10-22T12:43:01;2.38;;;0.73;;
21030;SDS011;61072;47.808;7.636;2022-10-22T12:45:41;3.45;;;0.90;;
21030;SDS011;61072;47.808;7.636;2022-10-22T12:48:16;2.72;;;0.85;;
21030;SDS011;61072;47.808;7.636;2022-10-22T12:50:50;3.17;;;0.77;;
21030;SDS011;61072;47.808;7.636;2022-10-22T12:53:29;3.30;;;0.73;;
21030;SDS011;61072;47.808;7.636;2022-10-22T12:56:00;3.17;;;0.90;;
21030;SDS011;61072;47.808;7.636;2022-10-22T12:58:33;3.08;;;1.20;;
21030;SDS011;61072;47.808;7.636;2022-10-22T13:01:04;3.47;;;0.95;;
21030;SDS011;61072;47.808;7.636;2022-10-22T13:03:32;1.80;;;0.82;;
21030;SDS011;61072;47.808;7.636;2022-10-22T13:08:38;3.03;;;1.25;;
21030;SDS011;61072;47.808;7.636;2022-10-22T13:11:06;2.15;;;0.95;;
21030;SDS011;61072;47.808;7.636;2022-10-22T13:16:12;1.13;;;0.70;;
21030;SDS011;61072;47.808;7.636;2022-10-22T13:18:47;4.10;;;1.00;;
21030;SDS011;61072;47.808;7.636;2022-10-22T13:21:21;2.10;;;0.80;;
21030;SDS011;61072;47.808;7.636;2022-10-22T13:23:52;1.92;;;0.73;;
21030;SDS011;61072;47.808;7.636;2022-10-22T13:26:20;5.13;;;1.10;;
21030;SDS011;61072;47.808;7.636;2022-10-22T13:28:49;2.63;;;0.90;;
21030;SDS011;61072;47.808;7.636;2022-10-22T13:31:25;2.42;;;0.60;;
21030;SDS011;61072;47.808;7.636;2022-10-22T13:33:57;2.30;;;0.93;;
21030;SDS011;61072;47.808;7.636;2022-10-22T13:36:31;2.58;;;0.73;;
21030;SDS011;61072;47.808;7.636;2022-10-22T13:38:58;1.27;;;0.85;;
21030;SDS011;61072;47.808;7.636;2022-10-22T13:41:26;4.53;;;0.70;;
21030;SDS011;61072;47.808;7.636;2022-10-22T13:43:56;4.72;;;0.82;;
21030;SDS011;61072;47.808;7.636;2022-10-22T13:46:23;1.65;;;0.77;;
21030;SDS011;61072;47.808;7.636;2022-10-22T13:48:52;2.75;;;0.70;;
21030;SDS011;61072;47.808;7.636;2022-10-22T13:51:27;2.13;;;0.85;;
21030;SDS011;61072;47.808;7.636;2022-10-22T13:53:57;2.05;;;0.80;;
21030;SDS011;61072;47.808;7.636;2022-10-22T13:56:24;1.75;;;0.70;;
21030;SDS011;61072;47.808;7.636;2022-10-22T13:58:50;3.15;;;0.82;;
21030;SDS011;61072;47.808;7.636;2022-10-22T14:01:24;1.55;;;0.82;;
21030;SDS011;61072;47.808;7.636;2022-10-22T14:03:53;3.22;;;0.80;;
21030;SDS011;61072;47.808;7.636;2022-10-22T14:06:23;4.53;;;0.80;;
21030;SDS011;61072;47.808;7.636;2022-10-22T14:08:55;2.78;;;0.80;;
21030;SDS011;61072;47.808;7.636;2022-10-22T14:11:24;3.50;;;0.80;;
21030;SDS011;61072;47.808;7.636;2022-10-22T14:13:56;2.55;;;0.68;;
21030;SDS011;61072;47.808;7.636;2022-10-22T14:16:25;5.00;;;0.82;;
21030;SDS011;61072;47.808;7.636;2022-10-22T14:18:53;3.50;;;0.70;;
21030;SDS011;61072;47.808;7.636;2022-10-22T14:21:21;4.22;;;0.90;;
21030;SDS011;61072;47.808;7.636;2022-10-22T14:23:48;2.78;;;1.00;;
21030;SDS011;61072;47.808;7.636;2022-10-22T14:26:24;5.50;;;1.38;;
21030;SDS011;61072;47.808;7.636;2022-10-22T14:28:55;8.75;;;1.90;;
21030;SDS011;61072;47.808;7.636;2022-10-22T14:31:40;3.45;;;1.30;;
21030;SDS011;61072;47.808;7.636;2022-10-22T14:34:10;6.32;;;1.85;;
21030;SDS011;61072;47.808;7.636;2022-10-22T14:36:39;3.90;;;1.95;;
21030;SDS011;61072;47.808;7.636;2022-10-22T14:39:08;5.20;;;2.22;;
21030;SDS011;61072;47.808;7.636;2022-10-22T14:41:35;6.93;;;2.25;;
21030;SDS011;61072;47.808;7.636;2022-10-22T14:44:02;12.38;;;1.70;;
21030;SDS011;61072;47.808;7.636;2022-10-22T14:46:29;2.42;;;1.10;;
21030;SDS011;61072;47.808;7.636;2022-10-22T14:48:56;2.25;;;0.93;;
21030;SDS011;61072;47.808;7.636;2022-10-22T14:51:22;5.50;;;1.35;;
21030;SDS011;61072;47.808;7.636;2022-10-22T14:53:49;2.80;;;1.15;;
21030;SDS011;61072;47.808;7.636;2022-10-22T14:56:17;3.22;;;1.13;;
21030;SDS011;61072;47.808;7.636;2022-10-22T14:58:48;2.28;;;1.10;;
21030;SDS011;61072;47.808;7.636;2022-10-22T15:01:15;2.35;;;0.95;;
21030;SDS011;61072;47.808;7.636;2022-10-22T15:03:42;6.22;;;1.30;;
21030;SDS011;61072;47.808;7.636;2022-10-22T15:06:08;2.97;;;1.17;;
21030;SDS011;61072;47.808;7.636;2022-10-22T15:08:35;4.38;;;1.27;;
21030;SDS011;61072;47.808;7.636;2022-10-22T15:11:04;2.45;;;0.90;;
21030;SDS011;61072;47.808;7.636;2022-10-22T15:13:32;3.42;;;1.58;;
21030;SDS011;61072;47.808;7.636;2022-10-22T15:16:00;2.92;;;1.02;;
21030;SDS011;61072;47.808;7.636;2022-10-22T15:18:31;4.82;;;1.10;;
21030;SDS011;61072;47.808;7.636;2022-10-22T15:20:59;2.60;;;1.10;;
21030;SDS011;61072;47.808;7.636;2022-10-22T15:23:27;5.05;;;1.30;;
21030;SDS011;61072;47.808;7.636;2022-10-22T15:25:54;3.55;;;0.70;;
21030;SDS011;61072;47.808;7.636;2022-10-22T15:28:21;5.80;;;0.60;;
21030;SDS011;61072;47.808;7.636;2022-10-22T15:30:53;0.73;;;0.60;;
21030;SDS011;61072;47.808;7.636;2022-10-22T15:33:21;2.97;;;0.60;;
21030;SDS011;61072;47.808;7.636;2022-10-22T15:35:48;4.88;;;0.65;;
21030;SDS011;61072;47.808;7.636;2022-10-22T15:38:15;2.53;;;0.70;;
21030;SDS011;61072;47.808;7.636;2022-10-22T15:40:42;7.57;;;0.70;;
21030;SDS011;61072;47.808;7.636;2022-10-22T15:43:09;3.72;;;0.57;;
21030;SDS011;61072;47.808;7.636;2022-10-22T15:45:36;4.05;;;0.88;;
21030;SDS011;61072;47.808;7.636;2022-10-22T15:48:03;0.93;;;0.65;;
21030;SDS011;61072;47.808;7.636;2022-10-22T15:50:30;6.30;;;1.05;;
21030;SDS011;61072;47.808;7.636;2022-10-22T15:52:57;5.75;;;1.13;;
21030;SDS011;61072;47.808;7.636;2022-10-22T15:55:23;4.60;;;1.25;;
21030;SDS011;61072;47.808;7.636;2022-10-22T15:57:52;7.13;;;1.20;;
21030;SDS011;61072;47.808;7.636;2022-10-22T16:00:23;4.65;;;1.55;;
21030;SDS011;61072;47.808;7.636;2022-10-22T16:02:50;4.18;;;2.05;;
21030;SDS011;61072;47.808;7.636;2022-10-22T16:05:19;6.50;;;1.67;;
21030;SDS011;61072;47.808;7.636;2022-10-22T16:07:45;14.65;;;2.92;;
21030;SDS011;61072;47.808;7.636;2022-10-22T16:10:12;6.82;;;1.70;;
21030;SDS011;61072;47.808;7.636;2022-10-22T16:12:39;3.72;;;1.50;;
21030;SDS011;61072;47.808;7.636;2022-10-22T16:15:07;2.65;;;1.30;;
21030;SDS011;61072;47.808;7.636;2022-10-22T16:17:34;4.93;;;1.20;;
21030;SDS011;61072;47.808;7.636;2022-10-22T16:20:01;6.90;;;1.08;;
21030;SDS011;61072;47.808;7.636;2022-10-22T16:22:28;3.17;;;1.25;;
21030;SDS011;61072;47.808;7.636;2022-10-22T16:24:54;2.65;;;1.00;;
21030;SDS011;61072;47.808;7.636;2022-10-22T16:27:21;4.32;;;0.80;;
21030;SDS011;61072;47.808;7.636;2022-10-22T16:29:48;2.25;;;0.82;;
21030;SDS011;61072;47.808;7.636;2022-10-22T16:32:14;5.22;;;1.10;;
21030;SDS011;61072;47.808;7.636;2022-10-22T16:34:41;4.28;;;0.77;;
21030;SDS011;61072;47.808;7.636;2022-10-22T16:37:08;4.32;;;1.40;;
21030;SDS011;61072;47.808;7.636;2022-10-22T16:39:35;2.22;;;0.88;;
21030;SDS011;61072;47.808;7.636;2022-10-22T16:42:02;4.72;;;1.10;;
21030;SDS011;61072;47.808;7.636;2022-10-22T16:44:29;3.85;;;1.15;;
21030;SDS011;61072;47.808;7.636;2022-10-22T16:46:56;4.20;;;1.02;;
21030;SDS011;61072;47.808;7.636;2022-10-22T16:49:22;6.88;;;1.15;;
21030;SDS011;61072;47.808;7.636;2022-10-22T16:51:49;9.40;;;1.10;;
21030;SDS011;61072;47.808;7.636;2022-10-22T16:54:16;4.47;;;0.90;;
21030;SDS011;61072;47.808;7.636;2022-10-22T16:56:42;4.00;;;1.10;;
21030;SDS011;61072;47.808;7.636;2022-10-22T16:59:09;4.30;;;1.08;;
21030;SDS011;61072;47.808;7.636;2022-10-22T17:01:36;6.38;;;1.02;;
21030;SDS011;61072;47.808;7.636;2022-10-22T17:04:06;6.25;;;1.40;;
21030;SDS011;61072;47.808;7.636;2022-10-22T17:06:33;4.95;;;1.38;;
21030;SDS011;61072;47.808;7.636;2022-10-22T17:09:00;2.08;;;1.17;;
21030;SDS011;61072;47.808;7.636;2022-10-22T17:11:26;6.38;;;1.40;;
21030;SDS011;61072;47.808;7.636;2022-10-22T17:13:59;7.15;;;1.13;;
21030;SDS011;61072;47.808;7.636;2022-10-22T17:16:27;8.23;;;1.20;;
21030;SDS011;61072;47.808;7.636;2022-10-22T17:18:54;3.22;;;1.48;;
21030;SDS011;61072;47.808;7.636;2022-10-22T17:21:22;9.63;;;1.98;;
21030;SDS011;61072;47.808;7.636;2022-10-22T17:23:53;5.32;;;1.52;;
21030;SDS011;61072;47.808;7.636;2022-10-22T17:26:22;7.18;;;1.20;;
21030;SDS011;61072;47.808;7.636;2022-10-22T17:28:51;3.03;;;1.48;;
21030;SDS011;61072;47.808;7.636;2022-10-22T17:33:51;9.27;;;1.42;;
21030;SDS011;61072;47.808;7.636;2022-10-22T17:36:19;5.10;;;1.25;;
21030;SDS011;61072;47.808;7.636;2022-10-22T17:38:48;5.97;;;1.40;;
21030;SDS011;61072;47.808;7.636;2022-10-22T17:41:17;6.53;;;1.45;;
21030;SDS011;61072;47.808;7.636;2022-10-22T17:43:46;12.73;;;2.25;;
21030;SDS011;61072;47.808;7.636;2022-10-22T17:46:15;5.30;;;1.30;;
21030;SDS011;61072;47.808;7.636;2022-10-22T17:48:52;6.10;;;1.35;;
21030;SDS011;61072;47.808;7.636;2022-10-22T17:51:21;2.47;;;1.52;;
21030;SDS011;61072;47.808;7.636;2022-10-22T17:53:49;6.72;;;1.20;;
21030;SDS011;61072;47.808;7.636;2022-10-22T17:56:34;8.93;;;1.42;;
21030;SDS011;61072;47.808;7.636;2022-10-22T17:59:02;7.97;;;1.23;;
21030;SDS011;61072;47.808;7.636;2022-10-22T18:01:30;9.07;;;2.28;;
21030;SDS011;61072;47.808;7.636;2022-10-22T18:03:59;3.25;;;1.73;;
21030;SDS011;61072;47.808;7.636;2022-10-22T18:06:28;7.90;;;1.92;;
21030;SDS011;61072;47.808;7.636;2022-10-22T18:08:55;8.00;;;2.05;;
21030;SDS011;61072;47.808;7.636;2022-10-22T18:11:23;3.85;;;2.25;;
21030;SDS011;61072;47.808;7.636;2022-10-22T18:13:52;8.30;;;3.35;;
21030;SDS011;61072;47.808;7.636;2022-10-22T18:16:21;10.15;;;2.42;;
21030;SDS011;61072;47.808;7.636;2022-10-22T18:18:48;4.22;;;1.60;;
21030;SDS011;61072;47.808;7.636;2022-10-22T18:21:17;6.60;;;2.22;;
21030;SDS011;61072;47.808;7.636;2022-10-22T18:23:44;2.95;;;1.90;;
21030;SDS011;61072;47.808;7.636;2022-10-22T18:26:11;3.15;;;2.38;;
21030;SDS011;61072;47.808;7.636;2022-10-22T18:28:39;6.63;;;2.38;;
21030;SDS011;61072;47.808;7.636;2022-10-22T18:31:07;7.75;;;2.33;;
21030;SDS011;61072;47.808;7.636;2022-10-22T18:33:36;6.93;;;1.88;;
21030;SDS011;61072;47.808;7.636;2022-10-22T18:36:07;4.28;;;1.60;;
21030;SDS011;61072;47.808;7.636;2022-10-22T18:38:36;4.95;;;1.70;;
21030;SDS011;61072;47.808;7.636;2022-10-22T18:41:07;4.80;;;2.10;;
21030;SDS011;61072;47.808;7.636;2022-10-22T18:43:35;2.38;;;1.35;;
21030;SDS011;61072;47.808;7.636;2022-10-22T18:46:04;7.15;;;3.00;;
21030;SDS011;61072;47.808;7.636;2022-10-22T18:48:32;11.63;;;3.13;;
21030;SDS011;61072;47.808;7.636;2022-10-22T18:51:06;12.65;;;7.03;;
21030;SDS011;61072;47.808;7.636;2022-10-22T18:53:34;9.73;;;5.43;;
21030;SDS011;61072;47.808;7.636;2022-10-22T18:56:06;10.10;;;3.15;;
21030;SDS011;61072;47.808;7.636;2022-10-22T18:58:41;6.40;;;3.25;;
21030;SDS011;61072;47.808;7.636;2022-10-22T19:01:11;6.80;;;3.08;;
21030;SDS011;61072;47.808;7.636;2022-10-22T19:03:49;9.20;;;3.35;;
21030;SDS011;61072;47.808;7.636;2022-10-22T19:06:17;5.13;;;3.17;;
21030;SDS011;61072;47.808;7.636;2022-10-22T19:08:50;10.50;;;5.05;;
21030;SDS011;61072;47.808;7.636;2022-10-22T19:11:17;17.92;;;9.05;;
21030;SDS011;61072;47.808;7.636;2022-10-22T19:13:43;19.23;;;9.77;;
21030;SDS011;61072;47.808;7.636;2022-10-22T19:16:11;9.95;;;4.55;;
21030;SDS011;61072;47.808;7.636;2022-10-22T19:18:43;11.32;;;2.40;;
21030;SDS011;61072;47.808;7.636;2022-10-22T19:21:10;4.28;;;1.88;;
21030;SDS011;61072;47.808;7.636;2022-10-22T19:23:36;3.13;;;1.98;;
21030;SDS011;61072;47.808;7.636;2022-10-22T19:26:08;5.82;;;1.80;;
21030;SDS011;61072;47.808;7.636;2022-10-22T19:28:37;3.90;;;1.90;;
21030;SDS011;61072;47.808;7.636;2022-10-22T19:31:05;4.70;;;2.15;;
21030;SDS011;61072;47.808;7.636;2022-10-22T19:33:34;2.38;;;1.45;;
21030;SDS011;61072;47.808;7.636;2022-10-22T19:36:08;5.68;;;1.98;;
21030;SDS011;61072;47.808;7.636;2022-10-22T19:38:39;8.05;;;2.47;;
21030;SDS011;61072;47.808;7.636;2022-10-22T19:41:11;8.23;;;2.50;;
21030;SDS011;61072;47.808;7.636;2022-10-22T19:43:39;7.20;;;1.90;;
21030;SDS011;61072;47.808;7.636;2022-10-22T19:46:08;21.20;;;2.40;;
21030;SDS011;61072;47.808;7.636;2022-10-22T19:48:35;4.38;;;1.67;;
21030;SDS011;61072;47.808;7.636;2022-10-22T19:51:04;7.88;;;1.77;;
21030;SDS011;61072;47.808;7.636;2022-10-22T19:53:36;7.20;;;1.75;;
21030;SDS011;61072;47.808;7.636;2022-10-22T19:56:04;4.18;;;1.48;;